Time,TemperatureF,DewpointF,PressureIn,WindDirection,WindDirectionDegrees,WindSpeedMPH,WindSpeedGustMPH,Humidity,HourlyPrecipIn,Conditions,Clouds,dailyrainin,SoftwareType,DateUTC
2013-06-30 00:00:00,70.2,65.4,29.49,North,0,0.0,0.0,85,0.00,,,0.00,WUHU216HW,2013-06-30 04:00:00,
2013-06-30 00:01:00,70.2,65.4,29.49,North,0,0.0,0.0,85,0.00,,,0.00,WUHU216HW,2013-06-30 04:01:00,
2013-06-30 00:04:00,70.2,65.4,29.49,North,0,0.0,0.0,85,0.00,,,0.00,WUHU216HW,2013-06-30 04:04:00,
2013-06-30 00:09:00,70.4,66.0,29.49,North,0,0.0,0.0,86,0.00,,,0.00,WUHU216HW,2013-06-30 04:09:00,
2013-06-30 00:14:00,70.4,66.0,29.49,North,0,0.0,0.0,86,0.00,,,0.00,WUHU216HW,2013-06-30 04:14:00,
2013-06-30 00:19:00,70.4,66.0,29.49,North,0,0.0,0.0,86,0.00,,,0.00,WUHU216HW,2013-06-30 04:19:00,
2013-06-30 00:24:00,70.4,66.0,29.49,North,0,0.0,0.0,86,0.00,,,0.00,WUHU216HW,2013-06-30 04:24:00,
2013-06-30 00:29:00,70.4,66.0,29.49,North,0,0.0,0.0,86,0.00,,,0.00,WUHU216HW,2013-06-30 04:29:00,
2013-06-30 00:34:00,70.4,66.0,29.49,North,0,0.0,0.0,86,0.00,,,0.00,WUHU216HW,2013-06-30 04:34:00,
2013-06-30 00:39:00,70.4,66.0,29.49,North,0,0.0,0.0,86,0.00,,,0.00,WUHU216HW,2013-06-30 04:39:00,
2013-06-30 00:44:00,70.4,66.0,29.50,North,0,0.0,0.0,86,0.00,,,0.00,WUHU216HW,2013-06-30 04:44:00,
2013-06-30 00:49:00,70.4,66.0,29.50,North,0,0.0,0.0,86,0.00,,,0.00,WUHU216HW,2013-06-30 04:49:00,
2013-06-30 00:54:00,70.4,66.0,29.50,North,0,0.0,0.0,86,0.00,,,0.00,WUHU216HW,2013-06-30 04:54:00,
2013-06-30 00:59:00,70.4,66.0,29.50,North,0,0.0,0.0,86,0.00,,,0.00,WUHU216HW,2013-06-30 04:59:00,
2013-06-30 01:04:00,70.2,65.8,29.50,North,0,0.0,0.0,86,0.00,,,0.00,WUHU216HW,2013-06-30 05:04:00,
2013-06-30 01:09:00,70.2,65.8,29.50,North,0,0.0,0.0,86,0.00,,,0.00,WUHU216HW,2013-06-30 05:09:00,
2013-06-30 01:14:00,70.2,65.8,29.50,North,0,0.0,0.0,86,0.00,,,0.00,WUHU216HW,2013-06-30 05:14:00,
2013-06-30 01:19:00,70.0,65.6,29.50,North,0,0.0,0.0,86,0.00,,,0.00,WUHU216HW,2013-06-30 05:19:00,
2013-06-30 01:24:00,70.0,66.0,29.50,North,0,0.0,0.0,87,0.00,,,0.00,WUHU216HW,2013-06-30 05:24:00,
2013-06-30 01:29:00,70.0,66.0,29.50,North,0,0.0,0.0,87,0.00,,,0.00,WUHU216HW,2013-06-30 05:29:00,
2013-06-30 01:34:00,70.0,66.0,29.50,North,0,0.0,0.0,87,0.00,,,0.00,WUHU216HW,2013-06-30 05:34:00,
2013-06-30 01:39:00,70.2,66.2,29.50,North,0,0.0,0.0,87,0.00,,,0.00,WUHU216HW,2013-06-30 05:39:00,
2013-06-30 01:44:00,70.2,66.2,29.50,North,0,0.0,0.0,87,0.00,,,0.00,WUHU216HW,2013-06-30 05:44:00,
2013-06-30 01:49:00,70.2,66.2,29.50,North,0,0.0,0.0,87,0.00,,,0.00,WUHU216HW,2013-06-30 05:49:00,
2013-06-30 01:54:00,70.2,66.2,29.50,North,0,0.0,0.0,87,0.00,,,0.00,WUHU216HW,2013-06-30 05:54:00,
2013-06-30 01:59:00,70.2,66.2,29.50,North,0,0.0,0.0,87,0.00,,,0.00,WUHU216HW,2013-06-30 05:59:00,
2013-06-30 02:04:00,70.2,66.2,29.50,North,0,0.0,0.0,87,0.00,,,0.00,WUHU216HW,2013-06-30 06:04:00,
2013-06-30 02:09:00,70.2,66.2,29.50,North,0,0.0,0.0,87,0.00,,,0.00,WUHU216HW,2013-06-30 06:09:00,
2013-06-30 02:14:00,70.4,66.3,29.51,North,0,0.0,0.0,87,0.00,,,0.00,WUHU216HW,2013-06-30 06:14:00,
2013-06-30 02:19:00,70.4,66.3,29.51,North,0,0.0,0.0,87,0.00,,,0.00,WUHU216HW,2013-06-30 06:19:00,
2013-06-30 02:24:00,70.4,66.3,29.50,North,0,0.0,0.0,87,0.00,,,0.00,WUHU216HW,2013-06-30 06:24:00,
2013-06-30 02:29:00,70.6,66.5,29.51,North,0,0.0,0.0,87,0.00,,,0.00,WUHU216HW,2013-06-30 06:29:00,
2013-06-30 02:34:00,70.4,66.3,29.51,North,0,0.0,0.0,87,0.00,,,0.00,WUHU216HW,2013-06-30 06:34:00,
2013-06-30 02:39:00,70.4,66.3,29.51,North,0,0.0,0.0,87,0.00,,,0.00,WUHU216HW,2013-06-30 06:39:00,
2013-06-30 02:44:00,70.6,66.5,29.51,North,0,0.0,0.0,87,0.00,,,0.00,WUHU216HW,2013-06-30 06:44:00,
2013-06-30 02:50:00,70.4,66.3,29.51,North,0,0.0,0.0,87,0.00,,,0.00,WUHU216HW,2013-06-30 06:50:00,
2013-06-30 02:55:00,70.6,66.5,29.51,North,0,0.0,0.0,87,0.00,,,0.00,WUHU216HW,2013-06-30 06:55:00,
2013-06-30 03:00:00,70.6,66.5,29.51,North,0,0.0,0.0,87,0.00,,,0.00,WUHU216HW,2013-06-30 07:00:00,
2013-06-30 03:04:00,70.6,66.5,29.51,North,0,0.0,0.0,87,0.00,,,0.00,WUHU216HW,2013-06-30 07:04:00,
2013-06-30 03:09:00,70.4,66.3,29.51,North,0,0.0,0.0,87,0.00,,,0.00,WUHU216HW,2013-06-30 07:09:00,
2013-06-30 03:14:00,70.4,66.3,29.51,North,0,0.0,0.0,87,0.00,,,0.00,WUHU216HW,2013-06-30 07:14:00,
2013-06-30 03:20:00,70.4,66.3,29.51,North,0,0.0,0.0,87,0.00,,,0.00,WUHU216HW,2013-06-30 07:20:00,
2013-06-30 03:25:00,70.4,66.3,29.52,North,0,0.0,0.0,87,0.00,,,0.00,WUHU216HW,2013-06-30 07:25:00,
2013-06-30 03:30:00,70.4,66.3,29.51,North,0,0.0,0.0,87,0.00,,,0.00,WUHU216HW,2013-06-30 07:30:00,
2013-06-30 03:35:00,70.4,66.3,29.51,North,0,0.0,0.0,87,0.00,,,0.00,WUHU216HW,2013-06-30 07:35:00,
2013-06-30 03:40:00,70.4,66.3,29.51,North,0,0.0,0.0,87,0.00,,,0.00,WUHU216HW,2013-06-30 07:40:00,
2013-06-30 03:45:00,70.4,66.6,29.51,North,0,0.0,0.0,88,0.00,,,0.00,WUHU216HW,2013-06-30 07:45:00,
2013-06-30 03:49:00,70.2,66.4,29.51,North,0,0.0,0.0,88,0.00,,,0.00,WUHU216HW,2013-06-30 07:49:00,
2013-06-30 03:50:00,70.2,66.4,29.51,North,0,0.0,0.0,88,0.00,,,0.00,WUHU216HW,2013-06-30 07:50:00,
2013-06-30 03:55:00,70.2,66.4,29.51,North,0,0.0,0.0,88,0.00,,,0.00,WUHU216HW,2013-06-30 07:55:00,
2013-06-30 04:00:00,70.2,66.4,29.52,North,0,0.0,0.0,88,0.00,,,0.00,WUHU216HW,2013-06-30 08:00:00,
2013-06-30 04:05:00,70.2,66.4,29.52,North,0,0.0,0.0,88,0.00,,,0.00,WUHU216HW,2013-06-30 08:05:00,
2013-06-30 04:10:00,70.2,66.4,29.52,North,0,0.0,0.0,88,0.00,,,0.00,WUHU216HW,2013-06-30 08:10:00,
2013-06-30 04:15:00,70.2,66.4,29.52,North,0,0.0,0.0,88,0.00,,,0.00,WUHU216HW,2013-06-30 08:15:00,
2013-06-30 04:20:00,70.2,66.4,29.51,North,0,0.0,0.0,88,0.00,,,0.00,WUHU216HW,2013-06-30 08:20:00,
2013-06-30 04:25:00,70.2,66.4,29.51,North,0,0.0,0.0,88,0.00,,,0.00,WUHU216HW,2013-06-30 08:25:00,
2013-06-30 04:30:00,70.2,66.4,29.51,North,0,0.0,0.0,88,0.00,,,0.00,WUHU216HW,2013-06-30 08:30:00,
2013-06-30 04:35:00,70.0,66.2,29.52,North,0,0.0,0.0,88,0.00,,,0.00,WUHU216HW,2013-06-30 08:35:00,
2013-06-30 04:40:00,70.0,66.2,29.52,North,0,0.0,0.0,88,0.00,,,0.00,WUHU216HW,2013-06-30 08:40:00,
2013-06-30 04:45:00,70.0,66.2,29.52,North,0,0.0,0.0,88,0.00,,,0.00,WUHU216HW,2013-06-30 08:45:00,
2013-06-30 05:00:00,69.7,65.9,29.53,North,0,0.0,0.0,88,0.00,,,0.00,WUHU216HW,2013-06-30 09:00:00,
2013-06-30 05:05:00,69.5,65.7,29.53,North,0,0.0,0.0,88,0.00,,,0.00,WUHU216HW,2013-06-30 09:05:00,
2013-06-30 05:10:00,69.5,65.7,29.53,North,0,0.0,0.0,88,0.00,,,0.00,WUHU216HW,2013-06-30 09:10:00,
2013-06-30 05:15:00,69.5,65.7,29.53,North,0,0.0,0.0,88,0.00,,,0.00,WUHU216HW,2013-06-30 09:15:00,
2013-06-30 05:20:00,69.5,65.7,29.53,North,0,0.0,0.0,88,0.00,,,0.00,WUHU216HW,2013-06-30 09:20:00,
2013-06-30 05:25:00,69.5,65.7,29.53,North,0,0.0,0.0,88,0.00,,,0.00,WUHU216HW,2013-06-30 09:25:00,
2013-06-30 05:30:00,69.5,65.7,29.54,North,0,0.0,0.0,88,0.00,,,0.00,WUHU216HW,2013-06-30 09:30:00,
2013-06-30 05:35:00,69.5,66.1,29.54,North,0,0.0,0.0,89,0.00,,,0.00,WUHU216HW,2013-06-30 09:35:00,
2013-06-30 05:40:00,69.5,66.1,29.54,North,0,0.0,0.0,89,0.00,,,0.00,WUHU216HW,2013-06-30 09:40:00,
2013-06-30 05:45:00,69.7,66.2,29.54,North,0,0.0,0.0,89,0.00,,,0.00,WUHU216HW,2013-06-30 09:45:00,
2013-06-30 05:50:00,69.7,66.2,29.54,North,0,0.0,0.0,89,0.00,,,0.00,WUHU216HW,2013-06-30 09:50:00,
2013-06-30 05:55:00,69.8,66.4,29.54,North,0,0.0,0.0,89,0.00,,,0.00,WUHU216HW,2013-06-30 09:55:00,
2013-06-30 06:00:00,69.8,66.4,29.55,North,0,0.0,0.0,89,0.00,,,0.00,WUHU216HW,2013-06-30 10:00:00,
2013-06-30 06:05:00,69.8,66.1,29.55,North,0,0.0,0.0,88,0.00,,,0.00,WUHU216HW,2013-06-30 10:05:00,
2013-06-30 06:10:00,69.8,66.1,29.55,North,0,0.0,0.0,88,0.00,,,0.00,WUHU216HW,2013-06-30 10:10:00,
2013-06-30 06:15:00,69.8,66.1,29.56,North,0,0.0,0.0,88,0.00,,,0.00,WUHU216HW,2013-06-30 10:15:00,
2013-06-30 06:20:00,69.8,66.1,29.56,North,0,0.0,0.0,88,0.00,,,0.00,WUHU216HW,2013-06-30 10:20:00,
2013-06-30 06:25:00,69.8,66.1,29.56,North,0,0.0,0.0,88,0.00,,,0.00,WUHU216HW,2013-06-30 10:25:00,
2013-06-30 06:30:00,69.8,66.1,29.56,North,0,0.0,0.0,88,0.00,,,0.00,WUHU216HW,2013-06-30 10:30:00,
2013-06-30 06:35:00,70.0,66.2,29.56,North,0,0.0,0.0,88,0.00,,,0.00,WUHU216HW,2013-06-30 10:35:00,
2013-06-30 06:40:00,70.2,66.4,29.57,North,0,0.0,0.0,88,0.00,,,0.00,WUHU216HW,2013-06-30 10:40:00,
2013-06-30 06:45:00,70.2,66.4,29.57,North,0,0.0,0.0,88,0.00,,,0.00,WUHU216HW,2013-06-30 10:45:00,
2013-06-30 06:50:00,70.2,66.4,29.57,North,0,0.0,0.0,88,0.00,,,0.00,WUHU216HW,2013-06-30 10:50:00,
2013-06-30 06:55:00,70.2,66.4,29.57,North,0,0.0,0.0,88,0.00,,,0.00,WUHU216HW,2013-06-30 10:55:00,
2013-06-30 07:00:00,70.4,66.6,29.57,North,0,0.0,0.0,88,0.00,,,0.00,WUHU216HW,2013-06-30 11:00:00,
2013-06-30 07:05:00,70.6,66.8,29.58,North,0,0.0,0.0,88,0.00,,,0.00,WUHU216HW,2013-06-30 11:05:00,
2013-06-30 07:10:00,70.6,66.8,29.58,North,0,0.0,0.0,88,0.00,,,0.00,WUHU216HW,2013-06-30 11:10:00,
2013-06-30 07:15:00,70.7,67.0,29.58,North,0,0.0,0.0,88,0.00,,,0.00,WUHU216HW,2013-06-30 11:15:00,
2013-06-30 07:20:00,70.9,67.1,29.58,North,0,0.0,0.0,88,0.00,,,0.00,WUHU216HW,2013-06-30 11:20:00,
2013-06-30 07:25:00,70.9,67.1,29.59,North,0,0.0,0.0,88,0.00,,,0.00,WUHU216HW,2013-06-30 11:25:00,
2013-06-30 07:30:00,71.1,67.3,29.58,North,0,0.0,0.0,88,0.00,,,0.00,WUHU216HW,2013-06-30 11:30:00,
2013-06-30 07:35:00,71.3,67.2,29.59,North,0,0.0,0.0,87,0.00,,,0.00,WUHU216HW,2013-06-30 11:35:00,
2013-06-30 07:40:00,71.6,67.6,29.59,North,0,0.0,0.0,87,0.00,,,0.00,WUHU216HW,2013-06-30 11:40:00,
2013-06-30 07:45:00,71.6,67.6,29.59,North,0,0.0,0.0,87,0.00,,,0.00,WUHU216HW,2013-06-30 11:45:00,
2013-06-30 07:50:00,72.0,67.6,29.59,North,0,0.0,0.0,86,0.00,,,0.00,WUHU216HW,2013-06-30 11:50:00,
2013-06-30 07:55:00,72.0,67.6,29.59,North,0,0.0,0.0,86,0.00,,,0.00,WUHU216HW,2013-06-30 11:55:00,
2013-06-30 08:00:00,72.4,68.0,29.59,North,0,0.0,0.0,86,0.00,,,0.00,WUHU216HW,2013-06-30 12:00:00,
2013-06-30 08:05:00,72.4,67.6,29.59,North,0,0.0,0.0,85,0.00,,,0.00,WUHU216HW,2013-06-30 12:05:00,
2013-06-30 08:10:00,72.7,68.0,29.59,North,0,0.0,0.0,85,0.00,,,0.00,WUHU216HW,2013-06-30 12:10:00,
2013-06-30 08:15:00,73.1,68.3,29.59,North,0,0.0,0.0,85,0.00,,,0.00,WUHU216HW,2013-06-30 12:15:00,
2013-06-30 08:20:00,73.3,68.5,29.60,North,0,0.0,0.0,85,0.00,,,0.00,WUHU216HW,2013-06-30 12:20:00,
2013-06-30 08:25:00,73.8,69.0,29.60,North,0,0.0,0.0,85,0.00,,,0.00,WUHU216HW,2013-06-30 12:25:00,
2013-06-30 08:30:00,74.2,69.0,29.61,North,0,0.0,0.0,84,0.00,,,0.00,WUHU216HW,2013-06-30 12:30:00,
2013-06-30 08:35:00,74.3,68.9,29.60,North,0,0.0,0.0,83,0.00,,,0.00,WUHU216HW,2013-06-30 12:35:00,
2013-06-30 08:40:00,74.5,69.0,29.61,North,0,0.0,0.0,83,0.00,,,0.00,WUHU216HW,2013-06-30 12:40:00,
2013-06-30 08:45:00,74.5,69.0,29.61,North,0,0.0,0.0,83,0.00,,,0.00,WUHU216HW,2013-06-30 12:45:00,
2013-06-30 08:50:00,74.5,68.8,29.61,North,0,0.0,0.0,82,0.00,,,0.00,WUHU216HW,2013-06-30 12:50:00,
2013-06-30 08:55:00,74.7,69.0,29.61,North,0,0.0,0.0,82,0.00,,,0.00,WUHU216HW,2013-06-30 12:55:00,
2013-06-30 09:00:00,75.2,69.8,29.61,North,0,0.0,0.0,83,0.00,,,0.00,WUHU216HW,2013-06-30 13:00:00,
2013-06-30 09:05:00,76.0,69.8,29.61,North,0,0.0,0.0,81,0.00,,,0.00,WUHU216HW,2013-06-30 13:05:00,
2013-06-30 09:11:00,76.3,70.1,29.61,North,0,0.0,0.0,81,0.00,,,0.00,WUHU216HW,2013-06-30 13:11:00,
2013-06-30 09:16:00,76.9,70.2,29.61,North,0,0.0,0.0,80,0.00,,,0.00,WUHU216HW,2013-06-30 13:16:00,
2013-06-30 09:21:00,77.0,69.7,29.61,North,0,0.0,0.0,78,0.00,,,0.00,WUHU216HW,2013-06-30 13:21:00,
2013-06-30 09:26:00,77.4,70.0,29.61,North,0,0.0,0.0,78,0.00,,,0.00,WUHU216HW,2013-06-30 13:26:00,
2013-06-30 09:31:00,77.9,70.5,29.61,North,0,0.0,0.0,78,0.00,,,0.00,WUHU216HW,2013-06-30 13:31:00,
2013-06-30 09:36:00,78.1,70.3,29.61,North,0,0.0,0.0,77,0.00,,,0.00,WUHU216HW,2013-06-30 13:36:00,
2013-06-30 09:41:00,78.1,70.3,29.61,North,0,0.0,0.0,77,0.00,,,0.00,WUHU216HW,2013-06-30 13:41:00,
2013-06-30 10:00:00,80.5,71.0,29.61,North,0,0.0,0.0,73,0.00,,,0.00,WUHU216HW,2013-06-30 14:00:00,
2013-06-30 10:05:00,80.1,69.8,29.61,North,0,0.0,0.0,71,0.00,,,0.00,WUHU216HW,2013-06-30 14:05:00,
2013-06-30 10:10:00,80.3,70.8,29.61,North,0,0.0,0.0,73,0.00,,,0.00,WUHU216HW,2013-06-30 14:10:00,
2013-06-30 10:15:00,80.3,70.5,29.61,North,0,0.0,0.0,72,0.00,,,0.00,WUHU216HW,2013-06-30 14:15:00,
2013-06-30 10:20:00,80.3,70.5,29.61,North,0,0.0,0.0,72,0.00,,,0.00,WUHU216HW,2013-06-30 14:20:00,
2013-06-30 10:25:00,80.5,70.7,29.61,North,0,0.0,0.0,72,0.00,,,0.00,WUHU216HW,2013-06-30 14:25:00,
2013-06-30 10:30:00,81.0,71.1,29.61,North,0,0.0,0.0,72,0.00,,,0.00,WUHU216HW,2013-06-30 14:30:00,
2013-06-30 10:35:00,81.5,71.3,29.61,North,0,0.0,0.0,71,0.00,,,0.00,WUHU216HW,2013-06-30 14:35:00,
2013-06-30 10:40:00,81.5,71.3,29.61,North,0,0.0,0.0,71,0.00,,,0.00,WUHU216HW,2013-06-30 14:40:00,
2013-06-30 10:45:00,81.5,70.8,29.61,North,0,0.0,0.0,70,0.00,,,0.00,WUHU216HW,2013-06-30 14:45:00,
2013-06-30 10:50:00,81.5,70.8,29.61,North,0,0.0,0.0,70,0.00,,,0.00,WUHU216HW,2013-06-30 14:50:00,
2013-06-30 11:00:00,82.1,71.3,29.61,North,0,0.0,0.0,70,0.00,,,0.00,WUHU216HW,2013-06-30 15:00:00,
2013-06-30 11:05:00,82.8,72.0,29.61,North,0,0.0,0.0,70,0.00,,,0.00,WUHU216HW,2013-06-30 15:05:00,
2013-06-30 11:10:00,83.2,71.9,29.61,North,0,0.0,0.0,69,0.00,,,0.00,WUHU216HW,2013-06-30 15:10:00,
2013-06-30 11:15:00,83.7,72.5,29.61,North,0,0.0,0.0,69,0.00,,,0.00,WUHU216HW,2013-06-30 15:15:00,
2013-06-30 11:20:00,83.9,72.2,29.61,North,0,0.0,0.0,68,0.00,,,0.00,WUHU216HW,2013-06-30 15:20:00,
2013-06-30 11:25:00,84.1,72.8,29.61,North,0,0.0,0.0,69,0.00,,,0.00,WUHU216HW,2013-06-30 15:25:00,
2013-06-30 11:30:00,83.9,71.7,29.61,North,0,0.0,0.0,67,0.00,,,0.00,WUHU216HW,2013-06-30 15:30:00,
2013-06-30 11:35:00,83.9,71.7,29.61,North,0,0.0,0.0,67,0.00,,,0.00,WUHU216HW,2013-06-30 15:35:00,
2013-06-30 11:38:00,84.2,72.1,29.61,North,0,0.0,0.0,67,0.00,,,0.00,WUHU216HW,2013-06-30 15:38:00,
2013-06-30 11:40:00,84.2,72.1,29.61,North,0,0.0,0.0,67,0.00,,,0.00,WUHU216HW,2013-06-30 15:40:00,
2013-06-30 11:45:00,84.2,72.1,29.61,North,0,0.0,0.0,67,0.00,,,0.00,WUHU216HW,2013-06-30 15:45:00,
2013-06-30 12:00:00,85.3,73.2,29.61,North,0,0.0,0.0,67,0.00,,,0.00,WUHU216HW,2013-06-30 16:00:00,
2013-06-30 12:05:00,85.7,73.5,29.61,North,0,0.0,0.0,67,0.00,,,0.00,WUHU216HW,2013-06-30 16:05:00,
2013-06-30 12:10:00,85.5,72.8,29.61,North,0,0.0,0.0,66,0.00,,,0.00,WUHU216HW,2013-06-30 16:10:00,
2013-06-30 12:15:00,85.5,72.8,29.61,North,0,0.0,0.0,66,0.00,,,0.00,WUHU216HW,2013-06-30 16:15:00,
2013-06-30 12:20:00,85.5,72.8,29.61,North,0,0.0,0.0,66,0.00,,,0.00,WUHU216HW,2013-06-30 16:20:00,
2013-06-30 12:25:00,85.5,72.8,29.61,North,0,0.0,0.0,66,0.00,,,0.00,WUHU216HW,2013-06-30 16:25:00,
2013-06-30 12:30:00,85.7,72.5,29.61,North,0,0.0,0.0,65,0.00,,,0.00,WUHU216HW,2013-06-30 16:30:00,
2013-06-30 12:35:00,85.7,72.5,29.61,North,0,0.0,0.0,65,0.00,,,0.00,WUHU216HW,2013-06-30 16:35:00,
2013-06-30 12:40:00,85.9,71.8,29.61,North,0,0.0,0.0,63,0.00,,,0.00,WUHU216HW,2013-06-30 16:40:00,
2013-06-30 12:45:00,85.9,71.8,29.61,North,0,0.0,0.0,63,0.00,,,0.00,WUHU216HW,2013-06-30 16:45:00,
2013-06-30 13:00:00,86.0,72.0,29.60,North,0,0.0,0.0,63,0.00,,,0.00,WUHU216HW,2013-06-30 17:00:00,
2013-06-30 13:05:00,86.4,72.8,29.60,North,0,0.0,0.0,64,0.00,,,0.00,WUHU216HW,2013-06-30 17:05:00,
2013-06-30 13:10:00,86.8,72.2,29.60,North,0,0.0,0.0,62,0.00,,,0.00,WUHU216HW,2013-06-30 17:10:00,
2013-06-30 13:15:00,86.6,72.0,29.60,North,0,0.0,0.0,62,0.00,,,0.00,WUHU216HW,2013-06-30 17:15:00,
2013-06-30 13:20:00,86.2,71.2,29.60,North,0,0.0,0.0,61,0.00,,,0.00,WUHU216HW,2013-06-30 17:20:00,
2013-06-30 13:25:00,85.3,70.8,29.61,North,0,0.0,0.0,62,0.00,,,0.00,WUHU216HW,2013-06-30 17:25:00,
2013-06-30 13:30:00,85.1,71.1,29.61,North,0,0.0,0.0,63,0.00,,,0.00,WUHU216HW,2013-06-30 17:30:00,
2013-06-30 13:35:00,85.3,71.3,29.61,North,0,0.0,0.0,63,0.00,,,0.00,WUHU216HW,2013-06-30 17:35:00,
2013-06-30 13:40:00,85.3,71.3,29.61,North,0,0.0,0.0,63,0.00,,,0.00,WUHU216HW,2013-06-30 17:40:00,
2013-06-30 13:45:00,85.0,71.5,29.61,North,0,0.0,0.0,64,0.00,,,0.00,WUHU216HW,2013-06-30 17:45:00,
2013-06-30 13:50:00,85.1,71.6,29.61,North,0,0.0,0.0,64,0.00,,,0.00,WUHU216HW,2013-06-30 17:50:00,
2013-06-30 13:55:00,85.3,71.7,29.61,North,0,0.0,0.0,64,0.00,,,0.00,WUHU216HW,2013-06-30 17:55:00,
2013-06-30 14:01:00,85.3,70.8,29.60,North,0,0.0,0.0,62,0.00,,,0.00,WUHU216HW,2013-06-30 18:01:00,
2013-06-30 14:06:00,84.8,69.0,29.61,North,0,0.0,0.0,59,0.00,,,0.00,WUHU216HW,2013-06-30 18:06:00,
2013-06-30 14:11:00,84.4,69.1,29.61,North,0,0.0,0.0,60,0.00,,,0.00,WUHU216HW,2013-06-30 18:11:00,
2013-06-30 14:16:00,84.6,70.2,29.61,North,0,0.0,0.0,62,0.00,,,0.00,WUHU216HW,2013-06-30 18:16:00,
2013-06-30 14:21:00,84.6,70.2,29.61,North,0,0.0,0.0,62,0.00,,,0.00,WUHU216HW,2013-06-30 18:21:00,
2013-06-30 14:26:00,84.6,70.7,29.61,North,0,0.0,0.0,63,0.00,,,0.00,WUHU216HW,2013-06-30 18:26:00,
2013-06-30 14:31:00,84.1,70.6,29.61,North,0,0.0,0.0,64,0.00,,,0.00,WUHU216HW,2013-06-30 18:31:00,
2013-06-30 14:36:00,83.9,70.4,29.61,North,0,0.0,0.0,64,0.00,,,0.00,WUHU216HW,2013-06-30 18:36:00,
2013-06-30 14:41:00,83.9,70.4,29.61,North,0,0.0,0.0,64,0.00,,,0.00,WUHU216HW,2013-06-30 18:41:00,
2013-06-30 15:00:00,85.3,72.2,29.61,North,0,0.0,0.0,65,0.00,,,0.00,WUHU216HW,2013-06-30 19:00:00,
2013-06-30 15:05:00,85.3,71.7,29.61,North,0,0.0,0.0,64,0.00,,,0.00,WUHU216HW,2013-06-30 19:05:00,
2013-06-30 15:10:00,85.1,72.0,29.61,North,0,0.0,0.0,65,0.00,,,0.00,WUHU216HW,2013-06-30 19:10:00,
2013-06-30 15:15:00,85.0,71.9,29.61,North,0,0.0,0.0,65,0.00,,,0.00,WUHU216HW,2013-06-30 19:15:00,
2013-06-30 15:20:00,84.6,72.0,29.61,North,0,0.0,0.0,66,0.00,,,0.00,WUHU216HW,2013-06-30 19:20:00,
2013-06-30 15:25:00,84.4,72.3,29.61,North,0,0.0,0.0,67,0.00,,,0.00,WUHU216HW,2013-06-30 19:25:00,
2013-06-30 15:30:00,84.8,72.6,29.61,North,0,0.0,0.0,67,0.00,,,0.00,WUHU216HW,2013-06-30 19:30:00,
2013-06-30 15:35:00,85.0,72.8,29.61,North,0,0.0,0.0,67,0.00,,,0.00,WUHU216HW,2013-06-30 19:35:00,
2013-06-30 15:40:00,85.0,72.8,29.61,North,0,0.0,0.0,67,0.00,,,0.00,WUHU216HW,2013-06-30 19:40:00,
2013-06-30 16:00:00,85.3,73.2,29.61,North,0,0.0,0.0,67,0.00,,,0.00,WUHU216HW,2013-06-30 20:00:00,
2013-06-30 16:05:00,85.3,73.2,29.61,North,0,0.0,0.0,67,0.00,,,0.00,WUHU216HW,2013-06-30 20:05:00,
2013-06-30 16:10:00,85.3,73.2,29.61,North,0,0.0,0.0,67,0.00,,,0.00,WUHU216HW,2013-06-30 20:10:00,
2013-06-30 16:15:00,85.0,72.8,29.60,North,0,0.0,0.0,67,0.00,,,0.00,WUHU216HW,2013-06-30 20:15:00,
2013-06-30 16:20:00,85.3,73.2,29.61,North,0,0.0,0.0,67,0.00,,,0.00,WUHU216HW,2013-06-30 20:20:00,
2013-06-30 16:25:00,85.3,73.2,29.61,North,0,0.0,0.0,67,0.00,,,0.00,WUHU216HW,2013-06-30 20:25:00,
2013-06-30 16:30:00,85.0,72.8,29.61,North,0,0.0,0.0,67,0.00,,,0.00,WUHU216HW,2013-06-30 20:30:00,
2013-06-30 16:35:00,84.6,72.9,29.61,North,0,0.0,0.0,68,0.00,,,0.00,WUHU216HW,2013-06-30 20:35:00,
2013-06-30 16:40:00,84.1,72.4,29.62,North,0,0.0,0.0,68,0.00,,,0.00,WUHU216HW,2013-06-30 20:40:00,
2013-06-30 16:45:00,83.5,71.8,29.62,North,0,0.0,0.0,68,0.00,,,0.00,WUHU216HW,2013-06-30 20:45:00,
2013-06-30 16:50:00,82.8,71.1,29.62,North,0,0.0,0.0,68,0.00,,,0.00,WUHU216HW,2013-06-30 20:50:00,
2013-06-30 16:55:00,82.3,70.1,29.62,North,0,0.0,0.0,67,0.00,,,0.00,WUHU216HW,2013-06-30 20:55:00,
2013-06-30 17:00:00,81.9,69.9,29.63,North,0,0.0,0.0,67,0.00,,,0.00,WUHU216HW,2013-06-30 21:00:00,
2013-06-30 17:05:00,81.2,69.6,29.63,North,0,0.0,0.0,68,0.00,,,0.00,WUHU216HW,2013-06-30 21:05:00,
2013-06-30 17:10:00,80.8,69.8,29.63,North,0,0.0,0.0,69,0.00,,,0.00,WUHU216HW,2013-06-30 21:10:00,
2013-06-30 17:15:00,79.4,69.6,29.63,North,0,0.0,0.0,72,0.00,,,0.00,WUHU216HW,2013-06-30 21:15:00,
2013-06-30 17:20:00,78.7,69.7,29.63,North,0,0.0,0.0,74,0.01,,,0.01,WUHU216HW,2013-06-30 21:20:00,
2013-06-30 17:25:00,77.8,69.2,29.63,North,0,0.0,0.0,75,0.01,,,0.01,WUHU216HW,2013-06-30 21:25:00,
2013-06-30 17:30:00,77.2,69.0,29.64,North,0,0.0,0.0,76,0.01,,,0.01,WUHU216HW,2013-06-30 21:30:00,
2013-06-30 17:35:00,76.9,68.7,29.64,North,0,0.0,0.0,76,0.01,,,0.01,WUHU216HW,2013-06-30 21:35:00,
2013-06-30 17:40:00,76.9,68.7,29.64,North,0,0.0,0.0,76,0.01,,,0.01,WUHU216HW,2013-06-30 21:40:00,
2013-06-30 18:00:00,73.3,65.6,29.67,North,0,0.0,0.0,77,0.02,,,0.02,WUHU216HW,2013-06-30 22:00:00,
2013-06-30 18:05:00,73.1,65.9,29.68,North,0,0.0,0.0,78,0.02,,,0.02,WUHU216HW,2013-06-30 22:05:00,
2013-06-30 18:10:00,72.7,65.9,29.69,North,0,0.0,0.0,79,0.03,,,0.03,WUHU216HW,2013-06-30 22:10:00,
2013-06-30 18:15:00,71.8,65.3,29.69,North,0,0.0,0.0,80,0.15,,,0.12,WUHU216HW,2013-06-30 22:15:00,
2013-06-30 18:20:00,70.4,63.9,29.70,North,0,0.0,0.0,80,0.47,,,0.45,WUHU216HW,2013-06-30 22:20:00,
2013-06-30 18:25:00,69.5,63.7,29.68,North,0,0.0,0.0,82,0.71,,,0.70,WUHU216HW,2013-06-30 22:25:00,
2013-06-30 18:30:00,69.3,64.3,29.68,North,0,0.0,0.0,84,0.79,,,0.80,WUHU216HW,2013-06-30 22:30:00,
2013-06-30 18:35:00,69.1,64.1,29.69,North,0,0.0,0.0,84,0.81,,,0.82,WUHU216HW,2013-06-30 22:35:00,
2013-06-30 18:40:00,68.9,63.9,29.68,North,0,0.0,0.0,84,0.81,,,0.82,WUHU216HW,2013-06-30 22:40:00,
2013-06-30 18:45:00,68.9,63.9,29.69,North,0,0.0,0.0,84,0.81,,,0.82,WUHU216HW,2013-06-30 22:45:00,
2013-06-30 18:50:00,68.9,64.5,29.69,North,0,0.0,0.0,86,0.81,,,0.82,WUHU216HW,2013-06-30 22:50:00,
2013-06-30 18:55:00,69.1,64.7,29.68,North,0,0.0,0.0,86,0.81,,,0.82,WUHU216HW,2013-06-30 22:55:00,
2013-06-30 19:00:00,69.1,64.7,29.68,North,0,0.0,0.0,86,0.80,,,0.82,WUHU216HW,2013-06-30 23:00:00,
2013-06-30 19:05:00,69.3,64.9,29.68,North,0,0.0,0.0,86,0.79,,,0.82,WUHU216HW,2013-06-30 23:05:00,
2013-06-30 19:10:00,69.3,64.9,29.68,North,0,0.0,0.0,86,0.76,,,0.82,WUHU216HW,2013-06-30 23:10:00,
2013-06-30 19:15:00,69.3,64.9,29.68,North,0,0.0,0.0,86,0.63,,,0.82,WUHU216HW,2013-06-30 23:15:00,
2013-06-30 19:20:00,69.5,65.1,29.68,North,0,0.0,0.0,86,0.35,,,0.82,WUHU216HW,2013-06-30 23:20:00,
2013-06-30 19:25:00,69.5,65.1,29.68,North,0,0.0,0.0,86,0.03,,,0.82,WUHU216HW,2013-06-30 23:25:00,
2013-06-30 19:30:00,69.5,65.1,29.68,North,0,0.0,0.0,86,0.01,,,0.82,WUHU216HW,2013-06-30 23:30:00,
2013-06-30 19:35:00,69.7,65.3,29.67,North,0,0.0,0.0,86,0.00,,,0.82,WUHU216HW,2013-06-30 23:35:00,
2013-06-30 19:40:00,69.7,65.6,29.67,North,0,0.0,0.0,87,0.00,,,0.82,WUHU216HW,2013-06-30 23:40:00,
2013-06-30 19:45:00,69.7,65.6,29.67,North,0,0.0,0.0,87,0.00,,,0.82,WUHU216HW,2013-06-30 23:45:00,
2013-06-30 19:50:00,69.7,65.6,29.67,North,0,0.0,0.0,87,0.00,,,0.82,WUHU216HW,2013-06-30 23:50:00,
2013-06-30 20:00:00,69.5,65.4,29.67,North,0,0.0,0.0,87,0.00,,,0.82,WUHU216HW,2013-07-01 00:00:00,
2013-06-30 20:05:00,69.5,65.4,29.67,North,0,0.0,0.0,87,0.00,,,0.82,WUHU216HW,2013-07-01 00:05:00,
2013-06-30 20:10:00,69.5,65.4,29.67,North,0,0.0,0.0,87,0.00,,,0.82,WUHU216HW,2013-07-01 00:10:00,
2013-06-30 20:15:00,69.5,65.4,29.67,North,0,0.0,0.0,87,0.00,,,0.82,WUHU216HW,2013-07-01 00:15:00,
2013-06-30 20:20:00,69.5,65.4,29.67,North,0,0.0,0.0,87,0.00,,,0.82,WUHU216HW,2013-07-01 00:20:00,
2013-06-30 20:25:00,69.5,65.4,29.67,North,0,0.0,0.0,87,0.00,,,0.82,WUHU216HW,2013-07-01 00:25:00,
2013-06-30 20:30:00,69.5,65.7,29.68,North,0,0.0,0.0,88,0.00,,,0.82,WUHU216HW,2013-07-01 00:30:00,
2013-06-30 20:35:00,69.5,65.7,29.68,North,0,0.0,0.0,88,0.00,,,0.82,WUHU216HW,2013-07-01 00:35:00,
2013-06-30 20:40:00,69.5,65.7,29.68,North,0,0.0,0.0,88,0.00,,,0.82,WUHU216HW,2013-07-01 00:40:00,
2013-06-30 20:45:00,69.5,65.7,29.68,North,0,0.0,0.0,88,0.00,,,0.82,WUHU216HW,2013-07-01 00:45:00,
2013-06-30 20:50:00,69.5,65.7,29.68,North,0,0.0,0.0,88,0.00,,,0.82,WUHU216HW,2013-07-01 00:50:00,
2013-06-30 20:55:00,69.3,65.6,29.68,North,0,0.0,0.0,88,0.00,,,0.82,WUHU216HW,2013-07-01 00:55:00,
2013-06-30 21:00:00,69.3,65.6,29.68,North,0,0.0,0.0,88,0.00,,,0.82,WUHU216HW,2013-07-01 01:00:00,
2013-06-30 21:05:00,69.3,65.6,29.68,North,0,0.0,0.0,88,0.00,,,0.82,WUHU216HW,2013-07-01 01:05:00,
2013-06-30 21:10:00,69.1,65.4,29.69,North,0,0.0,0.0,88,0.00,,,0.82,WUHU216HW,2013-07-01 01:10:00,
2013-06-30 21:16:00,69.1,65.4,29.69,North,0,0.0,0.0,88,0.00,,,0.82,WUHU216HW,2013-07-01 01:16:00,
2013-06-30 21:21:00,69.1,65.4,29.69,North,0,0.0,0.0,88,0.00,,,0.82,WUHU216HW,2013-07-01 01:21:00,
2013-06-30 21:26:00,69.1,65.4,29.69,North,0,0.0,0.0,88,0.00,,,0.82,WUHU216HW,2013-07-01 01:26:00,
2013-06-30 21:31:00,69.1,65.4,29.70,North,0,0.0,0.0,88,0.00,,,0.82,WUHU216HW,2013-07-01 01:31:00,
2013-06-30 21:36:00,69.1,65.4,29.70,North,0,0.0,0.0,88,0.00,,,0.82,WUHU216HW,2013-07-01 01:36:00,
2013-06-30 21:41:00,69.1,65.7,29.70,North,0,0.0,0.0,89,0.00,,,0.82,WUHU216HW,2013-07-01 01:41:00,
2013-06-30 21:46:00,69.1,65.7,29.70,North,0,0.0,0.0,89,0.00,,,0.82,WUHU216HW,2013-07-01 01:46:00,
2013-06-30 21:51:00,68.9,65.5,29.70,North,0,0.0,0.0,89,0.00,,,0.82,WUHU216HW,2013-07-01 01:51:00,
2013-06-30 21:56:00,69.1,65.7,29.70,North,0,0.0,0.0,89,0.00,,,0.82,WUHU216HW,2013-07-01 01:56:00,
2013-06-30 22:01:00,69.1,65.7,29.70,North,0,0.0,0.0,89,0.00,,,0.82,WUHU216HW,2013-07-01 02:01:00,
2013-06-30 22:06:00,69.1,65.7,29.71,North,0,0.0,0.0,89,0.00,,,0.82,WUHU216HW,2013-07-01 02:06:00,
2013-06-30 22:11:00,69.1,65.7,29.71,North,0,0.0,0.0,89,0.00,,,0.82,WUHU216HW,2013-07-01 02:11:00,
2013-06-30 22:16:00,69.1,65.7,29.71,North,0,0.0,0.0,89,0.00,,,0.82,WUHU216HW,2013-07-01 02:16:00,
2013-06-30 22:21:00,69.1,65.7,29.71,North,0,0.0,0.0,89,0.00,,,0.82,WUHU216HW,2013-07-01 02:21:00,
2013-06-30 22:26:00,69.1,65.7,29.71,North,0,0.0,0.0,89,0.00,,,0.82,WUHU216HW,2013-07-01 02:26:00,
2013-06-30 22:31:00,69.1,65.7,29.71,North,0,0.0,0.0,89,0.00,,,0.82,WUHU216HW,2013-07-01 02:31:00,
2013-06-30 22:36:00,69.1,66.1,29.71,North,0,0.0,0.0,90,0.00,,,0.82,WUHU216HW,2013-07-01 02:36:00,
2013-06-30 22:41:00,69.1,66.1,29.71,North,0,0.0,0.0,90,0.00,,,0.82,WUHU216HW,2013-07-01 02:41:00,
2013-06-30 23:00:00,68.9,65.9,29.70,North,0,0.0,0.0,90,0.00,,,0.82,WUHU216HW,2013-07-01 03:00:00,
2013-06-30 23:05:00,68.9,65.9,29.70,North,0,0.0,0.0,90,0.00,,,0.82,WUHU216HW,2013-07-01 03:05:00,
2013-06-30 23:10:00,68.9,65.9,29.70,North,0,0.0,0.0,90,0.00,,,0.82,WUHU216HW,2013-07-01 03:10:00,
2013-06-30 23:15:00,68.9,65.9,29.70,North,0,0.0,0.0,90,0.00,,,0.82,WUHU216HW,2013-07-01 03:15:00,
2013-06-30 23:20:00,68.9,65.9,29.70,North,0,0.0,0.0,90,0.00,,,0.82,WUHU216HW,2013-07-01 03:20:00,
2013-06-30 23:25:00,69.1,66.1,29.71,North,0,0.0,0.0,90,0.00,,,0.82,WUHU216HW,2013-07-01 03:25:00,
2013-06-30 23:30:00,69.1,66.1,29.71,North,0,0.0,0.0,90,0.00,,,0.82,WUHU216HW,2013-07-01 03:30:00,
2013-06-30 23:35:00,69.1,66.1,29.71,North,0,0.0,0.0,90,0.00,,,0.82,WUHU216HW,2013-07-01 03:35:00,
2013-06-30 23:40:00,68.9,65.9,29.71,North,0,0.0,0.0,90,0.00,,,0.82,WUHU216HW,2013-07-01 03:40:00,
2013-06-30 23:45:00,68.9,65.9,29.71,North,0,0.0,0.0,90,0.00,,,0.82,WUHU216HW,2013-07-01 03:45:00,
2013-06-30 23:50:00,68.9,65.9,29.71,North,0,0.0,0.0,90,0.00,,,0.82,WUHU216HW,2013-07-01 03:50:00,
2013-06-30 23:55:00,68.9,65.9,29.71,North,0,0.0,0.0,90,0.00,,,0.82,WUHU216HW,2013-07-01 03:55:00,